sensor_id;sensor_type;location;lat;lon;timestamp;P1;durP1;ratioP1;P2;durP2;ratioP2
75087;SDS011;63664;44.868;40.600;2023-04-15T00:00:38;1.63;;;1.05;;
75087;SDS011;63664;44.868;40.600;2023-04-15T00:03:04;2.20;;;1.40;;
75087;SDS011;63664;44.868;40.600;2023-04-15T00:05:31;1.80;;;1.10;;
75087;SDS011;63664;44.868;40.600;2023-04-15T00:07:57;1.60;;;1.08;;
75087;SDS011;63664;44.868;40.600;2023-04-15T00:10:24;3.03;;;1.38;;
75087;SDS011;63664;44.868;40.600;2023-04-15T00:12:50;1.58;;;0.90;;
75087;SDS011;63664;44.868;40.600;2023-04-15T00:15:18;2.58;;;1.10;;
75087;SDS011;63664;44.868;40.600;2023-04-15T00:17:44;3.72;;;1.20;;
75087;SDS011;63664;44.868;40.600;2023-04-15T00:20:11;1.60;;;1.20;;
75087;SDS011;63664;44.868;40.600;2023-04-15T00:22:37;2.50;;;1.50;;
75087;SDS011;63664;44.868;40.600;2023-04-15T00:25:04;1.65;;;1.20;;
75087;SDS011;63664;44.868;40.600;2023-04-15T00:27:30;1.63;;;1.15;;
75087;SDS011;63664;44.868;40.600;2023-04-15T00:29:56;1.73;;;1.27;;
75087;SDS011;63664;44.868;40.600;2023-04-15T00:32:23;3.03;;;1.30;;
75087;SDS011;63664;44.868;40.600;2023-04-15T00:34:49;1.95;;;1.30;;
75087;SDS011;63664;44.868;40.600;2023-04-15T00:37:16;2.30;;;1.50;;
75087;SDS011;63664;44.868;40.600;2023-04-15T00:39:42;2.45;;;1.55;;
75087;SDS011;63664;44.868;40.600;2023-04-15T00:42:09;3.25;;;1.67;;
75087;SDS011;63664;44.868;40.600;2023-04-15T00:44:36;5.40;;;1.98;;
75087;SDS011;63664;44.868;40.600;2023-04-15T00:47:02;2.03;;;1.42;;
75087;SDS011;63664;44.868;40.600;2023-04-15T00:49:30;4.57;;;1.58;;
75087;SDS011;63664;44.868;40.600;2023-04-15T00:51:57;2.47;;;1.63;;
75087;SDS011;63664;44.868;40.600;2023-04-15T00:54:24;1.55;;;1.30;;
75087;SDS011;63664;44.868;40.600;2023-04-15T00:56:51;1.98;;;1.50;;
75087;SDS011;63664;44.868;40.600;2023-04-15T00:59:17;2.97;;;1.27;;
75087;SDS011;63664;44.868;40.600;2023-04-15T01:01:45;2.67;;;1.40;;
75087;SDS011;63664;44.868;40.600;2023-04-15T01:04:12;4.80;;;1.48;;
75087;SDS011;63664;44.868;40.600;2023-04-15T01:06:39;2.55;;;1.20;;
75087;SDS011;63664;44.868;40.600;2023-04-15T01:09:06;2.33;;;1.50;;
75087;SDS011;63664;44.868;40.600;2023-04-15T01:11:32;2.45;;;1.45;;
75087;SDS011;63664;44.868;40.600;2023-04-15T01:13:59;4.30;;;1.30;;
75087;SDS011;63664;44.868;40.600;2023-04-15T01:16:27;3.00;;;1.45;;
75087;SDS011;63664;44.868;40.600;2023-04-15T01:18:54;1.90;;;1.23;;
75087;SDS011;63664;44.868;40.600;2023-04-15T01:21:22;3.63;;;1.73;;
75087;SDS011;63664;44.868;40.600;2023-04-15T01:23:48;1.88;;;1.25;;
75087;SDS011;63664;44.868;40.600;2023-04-15T01:26:18;2.53;;;1.60;;
75087;SDS011;63664;44.868;40.600;2023-04-15T01:28:44;2.40;;;1.30;;
75087;SDS011;63664;44.868;40.600;2023-04-15T01:31:12;4.45;;;1.60;;
75087;SDS011;63664;44.868;40.600;2023-04-15T01:33:40;2.45;;;1.42;;
75087;SDS011;63664;44.868;40.600;2023-04-15T01:36:08;5.47;;;1.10;;
75087;SDS011;63664;44.868;40.600;2023-04-15T01:38:36;2.38;;;1.58;;
75087;SDS011;63664;44.868;40.600;2023-04-15T01:41:03;1.55;;;1.20;;
75087;SDS011;63664;44.868;40.600;2023-04-15T01:43:35;1.88;;;1.30;;
75087;SDS011;63664;44.868;40.600;2023-04-15T01:46:02;1.65;;;1.30;;
75087;SDS011;63664;44.868;40.600;2023-04-15T01:48:30;2.33;;;1.30;;
75087;SDS011;63664;44.868;40.600;2023-04-15T01:50:58;1.48;;;1.27;;
75087;SDS011;63664;44.868;40.600;2023-04-15T01:53:24;3.50;;;1.40;;
75087;SDS011;63664;44.868;40.600;2023-04-15T01:55:51;2.92;;;1.50;;
75087;SDS011;63664;44.868;40.600;2023-04-15T01:58:17;1.60;;;1.10;;
75087;SDS011;63664;44.868;40.600;2023-04-15T02:00:44;3.80;;;1.45;;
75087;SDS011;63664;44.868;40.600;2023-04-15T02:03:10;2.78;;;1.60;;
75087;SDS011;63664;44.868;40.600;2023-04-15T02:05:37;2.05;;;1.40;;
75087;SDS011;63664;44.868;40.600;2023-04-15T02:08:03;2.92;;;1.30;;
75087;SDS011;63664;44.868;40.600;2023-04-15T02:10:29;3.40;;;1.70;;
75087;SDS011;63664;44.868;40.600;2023-04-15T02:12:56;2.88;;;1.50;;
75087;SDS011;63664;44.868;40.600;2023-04-15T02:15:27;2.25;;;1.58;;
75087;SDS011;63664;44.868;40.600;2023-04-15T02:17:53;3.00;;;1.52;;
75087;SDS011;63664;44.868;40.600;2023-04-15T02:20:20;5.28;;;1.80;;
75087;SDS011;63664;44.868;40.600;2023-04-15T02:22:47;5.18;;;2.13;;
75087;SDS011;63664;44.868;40.600;2023-04-15T02:25:14;4.15;;;2.50;;
75087;SDS011;63664;44.868;40.600;2023-04-15T02:27:42;6.03;;;2.08;;
75087;SDS011;63664;44.868;40.600;2023-04-15T02:30:11;6.72;;;2.55;;
75087;SDS011;63664;44.868;40.600;2023-04-15T02:32:38;6.55;;;2.58;;
75087;SDS011;63664;44.868;40.600;2023-04-15T02:35:06;3.28;;;2.05;;
75087;SDS011;63664;44.868;40.600;2023-04-15T02:37:34;5.10;;;1.98;;
75087;SDS011;63664;44.868;40.600;2023-04-15T02:42:39;7.60;;;2.13;;
75087;SDS011;63664;44.868;40.600;2023-04-15T02:45:10;4.18;;;1.77;;
75087;SDS011;63664;44.868;40.600;2023-04-15T02:47:38;5.18;;;1.85;;
75087;SDS011;63664;44.868;40.600;2023-04-15T02:50:10;3.72;;;2.10;;
75087;SDS011;63664;44.868;40.600;2023-04-15T02:52:40;4.63;;;2.03;;
75087;SDS011;63664;44.868;40.600;2023-04-15T02:55:07;4.63;;;2.05;;
75087;SDS011;63664;44.868;40.600;2023-04-15T02:57:35;1.90;;;1.45;;
75087;SDS011;63664;44.868;40.600;2023-04-15T03:00:06;4.38;;;1.90;;
75087;SDS011;63664;44.868;40.600;2023-04-15T03:02:39;2.63;;;1.65;;
75087;SDS011;63664;44.868;40.600;2023-04-15T03:05:10;4.15;;;1.95;;
75087;SDS011;63664;44.868;40.600;2023-04-15T03:07:46;3.83;;;2.10;;
75087;SDS011;63664;44.868;40.600;2023-04-15T03:10:12;3.42;;;2.15;;
75087;SDS011;63664;44.868;40.600;2023-04-15T03:12:38;3.65;;;2.28;;
75087;SDS011;63664;44.868;40.600;2023-04-15T03:15:11;3.50;;;2.20;;
75087;SDS011;63664;44.868;40.600;2023-04-15T03:17:44;3.05;;;2.08;;
75087;SDS011;63664;44.868;40.600;2023-04-15T03:20:11;5.18;;;2.55;;
75087;SDS011;63664;44.868;40.600;2023-04-15T03:22:37;3.17;;;2.33;;
75087;SDS011;63664;44.868;40.600;2023-04-15T03:25:04;3.15;;;2.38;;
75087;SDS011;63664;44.868;40.600;2023-04-15T03:27:32;4.53;;;2.33;;
75087;SDS011;63664;44.868;40.600;2023-04-15T03:30:01;4.63;;;2.15;;
75087;SDS011;63664;44.868;40.600;2023-04-15T03:32:31;8.80;;;2.78;;
75087;SDS011;63664;44.868;40.600;2023-04-15T03:34:58;5.47;;;2.45;;
75087;SDS011;63664;44.868;40.600;2023-04-15T03:37:24;4.38;;;2.45;;
75087;SDS011;63664;44.868;40.600;2023-04-15T03:39:50;5.80;;;2.67;;
75087;SDS011;63664;44.868;40.600;2023-04-15T03:42:17;4.70;;;2.63;;
75087;SDS011;63664;44.868;40.600;2023-04-15T03:44:43;4.30;;;2.35;;
75087;SDS011;63664;44.868;40.600;2023-04-15T03:47:09;6.18;;;2.50;;
75087;SDS011;63664;44.868;40.600;2023-04-15T03:49:36;9.38;;;3.13;;
75087;SDS011;63664;44.868;40.600;2023-04-15T03:52:02;8.25;;;3.65;;
75087;SDS011;63664;44.868;40.600;2023-04-15T03:54:30;6.18;;;3.70;;
75087;SDS011;63664;44.868;40.600;2023-04-15T03:56:56;10.07;;;4.10;;
75087;SDS011;63664;44.868;40.600;2023-04-15T03:59:22;6.32;;;4.38;;
75087;SDS011;63664;44.868;40.600;2023-04-15T04:01:49;9.80;;;4.30;;
75087;SDS011;63664;44.868;40.600;2023-04-15T04:04:15;7.97;;;4.90;;
75087;SDS011;63664;44.868;40.600;2023-04-15T04:06:41;6.05;;;4.47;;
75087;SDS011;63664;44.868;40.600;2023-04-15T04:09:07;6.68;;;4.40;;
75087;SDS011;63664;44.868;40.600;2023-04-15T04:11:34;8.68;;;4.07;;
75087;SDS011;63664;44.868;40.600;2023-04-15T04:14:00;7.05;;;4.75;;
75087;SDS011;63664;44.868;40.600;2023-04-15T04:16:26;8.40;;;4.35;;
75087;SDS011;63664;44.868;40.600;2023-04-15T04:18:53;5.97;;;3.83;;
75087;SDS011;63664;44.868;40.600;2023-04-15T04:21:19;6.63;;;3.92;;
75087;SDS011;63664;44.868;40.600;2023-04-15T04:23:46;5.90;;;3.50;;
75087;SDS011;63664;44.868;40.600;2023-04-15T04:26:12;7.05;;;3.75;;
75087;SDS011;63664;44.868;40.600;2023-04-15T04:28:38;7.53;;;3.33;;
75087;SDS011;63664;44.868;40.600;2023-04-15T04:31:05;6.50;;;3.30;;
75087;SDS011;63664;44.868;40.600;2023-04-15T04:33:32;8.50;;;3.20;;
75087;SDS011;63664;44.868;40.600;2023-04-15T04:35:58;6.88;;;3.47;;
75087;SDS011;63664;44.868;40.600;2023-04-15T04:38:25;5.63;;;2.60;;
75087;SDS011;63664;44.868;40.600;2023-04-15T04:40:51;6.00;;;2.53;;
75087;SDS011;63664;44.868;40.600;2023-04-15T04:43:17;10.95;;;2.92;;
75087;SDS011;63664;44.868;40.600;2023-04-15T04:45:43;6.03;;;2.85;;
75087;SDS011;63664;44.868;40.600;2023-04-15T04:48:10;4.85;;;2.80;;
75087;SDS011;63664;44.868;40.600;2023-04-15T04:50:36;5.53;;;2.80;;
75087;SDS011;63664;44.868;40.600;2023-04-15T04:53:02;5.60;;;2.28;;
75087;SDS011;63664;44.868;40.600;2023-04-15T04:55:29;5.97;;;2.80;;
75087;SDS011;63664;44.868;40.600;2023-04-15T04:57:56;7.70;;;3.15;;
75087;SDS011;63664;44.868;40.600;2023-04-15T05:00:22;4.22;;;2.75;;
75087;SDS011;63664;44.868;40.600;2023-04-15T05:02:49;4.88;;;2.83;;
75087;SDS011;63664;44.868;40.600;2023-04-15T05:05:15;3.72;;;2.13;;
75087;SDS011;63664;44.868;40.600;2023-04-15T05:07:42;4.72;;;2.20;;
75087;SDS011;63664;44.868;40.600;2023-04-15T05:10:08;3.35;;;1.85;;
75087;SDS011;63664;44.868;40.600;2023-04-15T05:12:35;2.72;;;1.60;;
75087;SDS011;63664;44.868;40.600;2023-04-15T05:15:03;3.53;;;1.60;;
75087;SDS011;63664;44.868;40.600;2023-04-15T05:17:30;3.42;;;1.58;;
75087;SDS011;63664;44.868;40.600;2023-04-15T05:19:58;2.92;;;1.35;;
75087;SDS011;63664;44.868;40.600;2023-04-15T05:22:24;2.42;;;1.58;;
75087;SDS011;63664;44.868;40.600;2023-04-15T05:24:50;4.50;;;1.77;;
75087;SDS011;63664;44.868;40.600;2023-04-15T05:27:16;2.20;;;1.63;;
75087;SDS011;63664;44.868;40.600;2023-04-15T05:29:43;1.95;;;1.48;;
75087;SDS011;63664;44.868;40.600;2023-04-15T05:32:10;1.70;;;1.20;;
75087;SDS011;63664;44.868;40.600;2023-04-15T05:34:36;2.67;;;1.63;;
75087;SDS011;63664;44.868;40.600;2023-04-15T05:37:03;5.25;;;1.92;;
75087;SDS011;63664;44.868;40.600;2023-04-15T05:39:29;2.47;;;1.70;;
75087;SDS011;63664;44.868;40.600;2023-04-15T05:41:57;4.80;;;2.05;;
75087;SDS011;63664;44.868;40.600;2023-04-15T05:44:24;3.42;;;1.73;;
75087;SDS011;63664;44.868;40.600;2023-04-15T05:46:52;2.28;;;1.52;;
75087;SDS011;63664;44.868;40.600;2023-04-15T05:49:18;3.42;;;1.80;;
75087;SDS011;63664;44.868;40.600;2023-04-15T05:51:45;2.45;;;1.40;;
75087;SDS011;63664;44.868;40.600;2023-04-15T05:54:12;3.03;;;2.00;;
75087;SDS011;63664;44.868;40.600;2023-04-15T05:56:42;4.95;;;1.95;;
75087;SDS011;63664;44.868;40.600;2023-04-15T05:59:08;3.05;;;1.73;;
75087;SDS011;63664;44.868;40.600;2023-04-15T06:01:34;4.38;;;1.67;;
75087;SDS011;63664;44.868;40.600;2023-04-15T06:04:01;3.70;;;1.60;;
75087;SDS011;63664;44.868;40.600;2023-04-15T06:06:27;5.68;;;1.67;;
75087;SDS011;63664;44.868;40.600;2023-04-15T06:08:53;8.38;;;3.75;;
75087;SDS011;63664;44.868;40.600;2023-04-15T06:11:20;6.43;;;1.85;;
75087;SDS011;63664;44.868;40.600;2023-04-15T06:13:46;6.38;;;2.33;;
75087;SDS011;63664;44.868;40.600;2023-04-15T06:16:13;4.57;;;1.58;;
75087;SDS011;63664;44.868;40.600;2023-04-15T06:18:39;2.13;;;1.30;;
75087;SDS011;63664;44.868;40.600;2023-04-15T06:21:05;6.65;;;1.95;;
75087;SDS011;63664;44.868;40.600;2023-04-15T06:23:35;2.38;;;1.50;;
75087;SDS011;63664;44.868;40.600;2023-04-15T06:26:01;5.10;;;1.80;;
75087;SDS011;63664;44.868;40.600;2023-04-15T06:28:28;2.90;;;1.38;;
75087;SDS011;63664;44.868;40.600;2023-04-15T06:30:54;4.43;;;2.53;;
75087;SDS011;63664;44.868;40.600;2023-04-15T06:33:20;2.55;;;1.55;;
75087;SDS011;63664;44.868;40.600;2023-04-15T06:35:47;2.13;;;1.40;;
75087;SDS011;63664;44.868;40.600;2023-04-15T06:38:14;5.95;;;2.72;;
75087;SDS011;63664;44.868;40.600;2023-04-15T06:40:41;3.55;;;1.95;;
75087;SDS011;63664;44.868;40.600;2023-04-15T06:43:07;2.75;;;1.55;;
75087;SDS011;63664;44.868;40.600;2023-04-15T06:45:33;8.82;;;3.38;;
75087;SDS011;63664;44.868;40.600;2023-04-15T06:48:00;6.72;;;2.78;;
75087;SDS011;63664;44.868;40.600;2023-04-15T06:50:26;5.53;;;2.15;;
75087;SDS011;63664;44.868;40.600;2023-04-15T06:52:53;3.72;;;1.85;;
75087;SDS011;63664;44.868;40.600;2023-04-15T06:55:20;2.50;;;1.70;;
75087;SDS011;63664;44.868;40.600;2023-04-15T06:57:47;4.25;;;1.75;;
75087;SDS011;63664;44.868;40.600;2023-04-15T07:00:13;9.20;;;2.47;;
75087;SDS011;63664;44.868;40.600;2023-04-15T07:02:41;5.93;;;2.95;;
75087;SDS011;63664;44.868;40.600;2023-04-15T07:05:07;2.70;;;1.50;;
75087;SDS011;63664;44.868;40.600;2023-04-15T07:07:34;3.03;;;1.27;;
75087;SDS011;63664;44.868;40.600;2023-04-15T07:10:01;4.43;;;2.20;;
75087;SDS011;63664;44.868;40.600;2023-04-15T07:12:28;5.40;;;1.90;;
75087;SDS011;63664;44.868;40.600;2023-04-15T07:14:55;2.92;;;1.75;;
75087;SDS011;63664;44.868;40.600;2023-04-15T07:17:21;4.55;;;2.05;;
75087;SDS011;63664;44.868;40.600;2023-04-15T07:19:47;5.88;;;1.60;;
75087;SDS011;63664;44.868;40.600;2023-04-15T07:22:13;3.80;;;1.88;;
75087;SDS011;63664;44.868;40.600;2023-04-15T07:24:40;10.55;;;2.22;;
75087;SDS011;63664;44.868;40.600;2023-04-15T07:27:06;4.85;;;1.65;;
75087;SDS011;63664;44.868;40.600;2023-04-15T07:29:33;3.85;;;1.33;;
75087;SDS011;63664;44.868;40.600;2023-04-15T07:31:59;4.18;;;1.55;;
75087;SDS011;63664;44.868;40.600;2023-04-15T07:34:25;6.00;;;2.05;;
75087;SDS011;63664;44.868;40.600;2023-04-15T07:36:53;3.38;;;1.60;;
75087;SDS011;63664;44.868;40.600;2023-04-15T07:39:19;3.60;;;1.92;;
75087;SDS011;63664;44.868;40.600;2023-04-15T07:41:46;3.05;;;1.40;;
75087;SDS011;63664;44.868;40.600;2023-04-15T07:44:13;5.10;;;1.92;;
75087;SDS011;63664;44.868;40.600;2023-04-15T07:46:40;3.60;;;1.95;;
75087;SDS011;63664;44.868;40.600;2023-04-15T07:49:06;6.40;;;1.60;;
75087;SDS011;63664;44.868;40.600;2023-04-15T07:51:33;3.25;;;1.90;;
75087;SDS011;63664;44.868;40.600;2023-04-15T07:53:59;7.97;;;1.65;;
75087;SDS011;63664;44.868;40.600;2023-04-15T07:56:25;3.13;;;1.60;;
75087;SDS011;63664;44.868;40.600;2023-04-15T07:58:52;2.70;;;1.27;;
75087;SDS011;63664;44.868;40.600;2023-04-15T08:01:18;2.92;;;1.48;;
75087;SDS011;63664;44.868;40.600;2023-04-15T08:03:45;9.38;;;2.05;;
75087;SDS011;63664;44.868;40.600;2023-04-15T08:06:11;28.05;;;5.32;;
75087;SDS011;63664;44.868;40.600;2023-04-15T08:08:37;6.28;;;2.35;;
75087;SDS011;63664;44.868;40.600;2023-04-15T08:11:04;1.90;;;1.10;;
75087;SDS011;63664;44.868;40.600;2023-04-15T08:13:31;7.55;;;1.63;;
75087;SDS011;63664;44.868;40.600;2023-04-15T08:16:13;3.83;;;1.58;;
75087;SDS011;63664;44.868;40.600;2023-04-15T08:18:40;3.50;;;1.45;;
75087;SDS011;63664;44.868;40.600;2023-04-15T08:21:06;1.90;;;1.00;;
75087;SDS011;63664;44.868;40.600;2023-04-15T08:23:33;23.98;;;9.45;;
75087;SDS011;63664;44.868;40.600;2023-04-15T08:26:00;6.20;;;1.73;;
75087;SDS011;63664;44.868;40.600;2023-04-15T08:28:26;9.68;;;1.80;;
75087;SDS011;63664;44.868;40.600;2023-04-15T08:30:53;4.05;;;2.13;;
75087;SDS011;63664;44.868;40.600;2023-04-15T08:33:19;6.15;;;3.22;;
75087;SDS011;63664;44.868;40.600;2023-04-15T08:35:47;4.50;;;1.90;;
75087;SDS011;63664;44.868;40.600;2023-04-15T08:38:13;5.13;;;2.17;;
75087;SDS011;63664;44.868;40.600;2023-04-15T08:40:41;25.95;;;2.45;;
75087;SDS011;63664;44.868;40.600;2023-04-15T08:43:10;3.55;;;1.83;;
75087;SDS011;63664;44.868;40.600;2023-04-15T08:45:40;2.47;;;1.42;;
75087;SDS011;63664;44.868;40.600;2023-04-15T08:48:07;2.58;;;1.08;;
75087;SDS011;63664;44.868;40.600;2023-04-15T08:50:41;7.75;;;1.67;;
75087;SDS011;63664;44.868;40.600;2023-04-15T08:53:07;2.65;;;1.10;;
75087;SDS011;63664;44.868;40.600;2023-04-15T08:55:42;6.88;;;1.50;;
75087;SDS011;63664;44.868;40.600;2023-04-15T08:58:16;2.45;;;1.50;;
75087;SDS011;63664;44.868;40.600;2023-04-15T09:00:44;7.78;;;1.70;;
75087;SDS011;63664;44.868;40.600;2023-04-15T09:03:10;2.67;;;1.50;;
75087;SDS011;63664;44.868;40.600;2023-04-15T09:05:37;7.28;;;1.75;;
75087;SDS011;63664;44.868;40.600;2023-04-15T09:08:04;4.15;;;1.98;;
75087;SDS011;63664;44.868;40.600;2023-04-15T09:10:30;4.40;;;1.50;;
75087;SDS011;63664;44.868;40.600;2023-04-15T09:12:57;6.80;;;1.90;;
75087;SDS011;63664;44.868;40.600;2023-04-15T09:15:24;3.90;;;2.15;;
75087;SDS011;63664;44.868;40.600;2023-04-15T09:17:54;4.72;;;1.50;;
75087;SDS011;63664;44.868;40.600;2023-04-15T09:20:21;7.97;;;1.83;;
75087;SDS011;63664;44.868;40.600;2023-04-15T09:22:49;4.80;;;2.80;;
75087;SDS011;63664;44.868;40.600;2023-04-15T09:27:50;5.57;;;1.65;;
75087;SDS011;63664;44.868;40.600;2023-04-15T09:30:18;1.50;;;1.20;;
75087;SDS011;63664;44.868;40.600;2023-04-15T09:32:55;7.07;;;2.03;;
75087;SDS011;63664;44.868;40.600;2023-04-15T09:35:27;4.95;;;1.90;;
75087;SDS011;63664;44.868;40.600;2023-04-15T09:40:50;2.92;;;1.98;;
75087;SDS011;63664;44.868;40.600;2023-04-15T09:43:16;17.90;;;2.47;;
75087;SDS011;63664;44.868;40.600;2023-04-15T09:45:49;5.82;;;2.45;;
75087;SDS011;63664;44.868;40.600;2023-04-15T09:48:19;5.43;;;2.20;;
75087;SDS011;63664;44.868;40.600;2023-04-15T09:50:48;7.57;;;3.25;;
75087;SDS011;63664;44.868;40.600;2023-04-15T09:53:16;10.93;;;4.50;;
75087;SDS011;63664;44.868;40.600;2023-04-15T09:56:01;7.40;;;2.40;;
75087;SDS011;63664;44.868;40.600;2023-04-15T09:58:28;3.65;;;2.72;;
75087;SDS011;63664;44.868;40.600;2023-04-15T10:00:58;5.93;;;3.03;;
75087;SDS011;63664;44.868;40.600;2023-04-15T10:03:27;7.03;;;2.65;;
75087;SDS011;63664;44.868;40.600;2023-04-15T10:05:57;5.38;;;2.55;;
75087;SDS011;63664;44.868;40.600;2023-04-15T10:08:26;10.52;;;3.40;;
75087;SDS011;63664;44.868;40.600;2023-04-15T10:10:53;9.57;;;3.30;;
75087;SDS011;63664;44.868;40.600;2023-04-15T10:13:24;6.22;;;2.83;;
75087;SDS011;63664;44.868;40.600;2023-04-15T10:15:56;7.05;;;3.53;;
75087;SDS011;63664;44.868;40.600;2023-04-15T10:18:24;8.40;;;3.42;;
75087;SDS011;63664;44.868;40.600;2023-04-15T10:20:53;5.97;;;3.03;;
75087;SDS011;63664;44.868;40.600;2023-04-15T10:23:21;3.78;;;2.50;;
75087;SDS011;63664;44.868;40.600;2023-04-15T10:25:50;9.68;;;3.00;;
75087;SDS011;63664;44.868;40.600;2023-04-15T10:28:19;5.72;;;3.20;;
75087;SDS011;63664;44.868;40.600;2023-04-15T10:30:47;5.32;;;3.33;;
75087;SDS011;63664;44.868;40.600;2023-04-15T10:33:15;8.38;;;3.38;;
75087;SDS011;63664;44.868;40.600;2023-04-15T10:35:45;6.32;;;2.63;;
75087;SDS011;63664;44.868;40.600;2023-04-15T10:41:12;6.30;;;3.15;;
75087;SDS011;63664;44.868;40.600;2023-04-15T10:43:43;7.05;;;3.63;;
75087;SDS011;63664;44.868;40.600;2023-04-15T10:46:15;6.70;;;3.22;;
75087;SDS011;63664;44.868;40.600;2023-04-15T10:48:52;9.35;;;3.28;;
75087;SDS011;63664;44.868;40.600;2023-04-15T10:51:27;6.38;;;3.20;;
75087;SDS011;63664;44.868;40.600;2023-04-15T10:53:55;8.48;;;3.97;;
75087;SDS011;63664;44.868;40.600;2023-04-15T10:56:23;6.93;;;3.55;;
75087;SDS011;63664;44.868;40.600;2023-04-15T10:58:49;8.93;;;3.65;;
75087;SDS011;63664;44.868;40.600;2023-04-15T11:01:18;9.75;;;3.90;;
75087;SDS011;63664;44.868;40.600;2023-04-15T11:03:47;10.23;;;3.28;;
75087;SDS011;63664;44.868;40.600;2023-04-15T11:06:15;9.55;;;3.53;;
75087;SDS011;63664;44.868;40.600;2023-04-15T11:08:55;6.88;;;3.60;;
75087;SDS011;63664;44.868;40.600;2023-04-15T11:14:27;5.53;;;2.85;;
75087;SDS011;63664;44.868;40.600;2023-04-15T11:16:53;8.73;;;3.38;;
75087;SDS011;63664;44.868;40.600;2023-04-15T11:19:19;6.22;;;3.13;;
75087;SDS011;63664;44.868;40.600;2023-04-15T11:21:46;7.80;;;3.78;;
75087;SDS011;63664;44.868;40.600;2023-04-15T11:24:22;8.68;;;3.50;;
75087;SDS011;63664;44.868;40.600;2023-04-15T11:26:57;7.45;;;3.15;;
75087;SDS011;63664;44.868;40.600;2023-04-15T11:29:30;10.13;;;3.33;;
75087;SDS011;63664;44.868;40.600;2023-04-15T11:32:09;5.68;;;2.95;;
75087;SDS011;63664;44.868;40.600;2023-04-15T11:34:36;6.53;;;3.78;;
75087;SDS011;63664;44.868;40.600;2023-04-15T11:37:03;4.85;;;2.90;;
75087;SDS011;63664;44.868;40.600;2023-04-15T11:39:31;6.13;;;3.10;;
75087;SDS011;63664;44.868;40.600;2023-04-15T11:41:57;6.10;;;3.50;;
75087;SDS011;63664;44.868;40.600;2023-04-15T11:44:25;6.03;;;2.88;;
75087;SDS011;63664;44.868;40.600;2023-04-15T11:46:51;6.78;;;3.13;;
75087;SDS011;63664;44.868;40.600;2023-04-15T11:49:32;7.28;;;3.42;;
75087;SDS011;63664;44.868;40.600;2023-04-15T11:52:00;6.00;;;3.03;;
75087;SDS011;63664;44.868;40.600;2023-04-15T11:54:26;5.57;;;3.17;;
75087;SDS011;63664;44.868;40.600;2023-04-15T11:56:52;8.88;;;3.38;;
75087;SDS011;63664;44.868;40.600;2023-04-15T11:59:21;5.70;;;3.13;;
75087;SDS011;63664;44.868;40.600;2023-04-15T12:01:47;6.25;;;2.60;;
75087;SDS011;63664;44.868;40.600;2023-04-15T12:04:17;9.70;;;3.45;;
75087;SDS011;63664;44.868;40.600;2023-04-15T12:06:46;6.97;;;3.08;;
75087;SDS011;63664;44.868;40.600;2023-04-15T12:09:14;10.48;;;3.38;;
75087;SDS011;63664;44.868;40.600;2023-04-15T12:11:44;7.00;;;3.72;;
75087;SDS011;63664;44.868;40.600;2023-04-15T12:14:19;8.82;;;3.80;;
75087;SDS011;63664;44.868;40.600;2023-04-15T12:16:49;8.20;;;3.72;;
75087;SDS011;63664;44.868;40.600;2023-04-15T12:19:43;5.35;;;3.22;;
75087;SDS011;63664;44.868;40.600;2023-04-15T12:22:14;4.93;;;2.90;;
75087;SDS011;63664;44.868;40.600;2023-04-15T12:24:42;5.57;;;2.67;;
75087;SDS011;63664;44.868;40.600;2023-04-15T12:27:16;6.55;;;3.17;;
75087;SDS011;63664;44.868;40.600;2023-04-15T12:29:42;12.73;;;2.97;;
75087;SDS011;63664;44.868;40.600;2023-04-15T12:32:12;6.75;;;3.00;;
75087;SDS011;63664;44.868;40.600;2023-04-15T12:34:53;9.75;;;3.38;;
75087;SDS011;63664;44.868;40.600;2023-04-15T12:37:19;4.68;;;3.03;;
75087;SDS011;63664;44.868;40.600;2023-04-15T12:39:46;7.53;;;3.00;;
75087;SDS011;63664;44.868;40.600;2023-04-15T12:42:15;6.70;;;2.72;;
75087;SDS011;63664;44.868;40.600;2023-04-15T12:44:42;7.10;;;2.85;;
75087;SDS011;63664;44.868;40.600;2023-04-15T12:47:09;6.55;;;2.40;;
75087;SDS011;63664;44.868;40.600;2023-04-15T12:49:36;17.70;;;2.78;;
75087;SDS011;63664;44.868;40.600;2023-04-15T12:52:06;5.50;;;2.45;;
75087;SDS011;63664;44.868;40.600;2023-04-15T12:54:33;4.63;;;2.63;;
75087;SDS011;63664;44.868;40.600;2023-04-15T12:57:00;5.22;;;2.53;;
75087;SDS011;63664;44.868;40.600;2023-04-15T12:59:27;3.90;;;2.42;;
75087;SDS011;63664;44.868;40.600;2023-04-15T13:01:54;8.73;;;2.42;;
75087;SDS011;63664;44.868;40.600;2023-04-15T13:04:20;5.15;;;2.60;;
75087;SDS011;63664;44.868;40.600;2023-04-15T13:06:47;5.88;;;2.67;;
75087;SDS011;63664;44.868;40.600;2023-04-15T13:09:13;9.23;;;2.83;;
75087;SDS011;63664;44.868;40.600;2023-04-15T13:11:40;6.15;;;3.00;;
75087;SDS011;63664;44.868;40.600;2023-04-15T13:14:07;8.68;;;3.00;;
75087;SDS011;63664;44.868;40.600;2023-04-15T13:16:35;4.35;;;1.92;;
75087;SDS011;63664;44.868;40.600;2023-04-15T13:19:02;5.07;;;2.42;;
75087;SDS011;63664;44.868;40.600;2023-04-15T13:21:30;5.75;;;2.40;;
75087;SDS011;63664;44.868;40.600;2023-04-15T13:23:59;4.25;;;2.05;;
75087;SDS011;63664;44.868;40.600;2023-04-15T13:26:26;5.55;;;2.45;;
75087;SDS011;63664;44.868;40.600;2023-04-15T13:28:53;4.07;;;2.33;;
75087;SDS011;63664;44.868;40.600;2023-04-15T13:31:20;5.40;;;2.83;;
75087;SDS011;63664;44.868;40.600;2023-04-15T13:33:46;4.85;;;2.40;;
75087;SDS011;63664;44.868;40.600;2023-04-15T13:36:13;5.80;;;2.13;;
75087;SDS011;63664;44.868;40.600;2023-04-15T13:38:39;7.18;;;1.63;;
75087;SDS011;63664;44.868;40.600;2023-04-15T13:41:05;5.55;;;1.73;;
75087;SDS011;63664;44.868;40.600;2023-04-15T13:43:31;2.60;;;1.55;;
75087;SDS011;63664;44.868;40.600;2023-04-15T13:45:59;6.88;;;2.70;;
75087;SDS011;63664;44.868;40.600;2023-04-15T13:48:25;5.43;;;2.33;;
75087;SDS011;63664;44.868;40.600;2023-04-15T13:50:52;3.08;;;1.70;;
75087;SDS011;63664;44.868;40.600;2023-04-15T13:53:18;3.28;;;1.38;;
75087;SDS011;63664;44.868;40.600;2023-04-15T13:55:45;2.13;;;1.38;;
75087;SDS011;63664;44.868;40.600;2023-04-15T13:58:11;3.80;;;1.88;;
75087;SDS011;63664;44.868;40.600;2023-04-15T14:00:37;3.28;;;1.55;;
75087;SDS011;63664;44.868;40.600;2023-04-15T14:03:04;4.10;;;1.95;;
75087;SDS011;63664;44.868;40.600;2023-04-15T14:05:31;2.65;;;1.38;;
75087;SDS011;63664;44.868;40.600;2023-04-15T14:08:00;4.47;;;2.40;;
75087;SDS011;63664;44.868;40.600;2023-04-15T14:10:30;3.15;;;1.60;;
75087;SDS011;63664;44.868;40.600;2023-04-15T14:12:56;3.42;;;1.58;;
75087;SDS011;63664;44.868;40.600;2023-04-15T14:15:22;3.67;;;1.70;;
75087;SDS011;63664;44.868;40.600;2023-04-15T14:17:48;4.30;;;2.20;;
75087;SDS011;63664;44.868;40.600;2023-04-15T14:20:15;5.70;;;1.70;;
75087;SDS011;63664;44.868;40.600;2023-04-15T14:22:41;5.07;;;1.75;;
75087;SDS011;63664;44.868;40.600;2023-04-15T14:25:08;2.65;;;1.83;;
75087;SDS011;63664;44.868;40.600;2023-04-15T14:27:34;7.07;;;2.20;;
75087;SDS011;63664;44.868;40.600;2023-04-15T14:30:01;3.72;;;2.10;;
75087;SDS011;63664;44.868;40.600;2023-04-15T14:32:27;5.05;;;2.40;;
75087;SDS011;63664;44.868;40.600;2023-04-15T14:34:53;5.38;;;1.92;;
75087;SDS011;63664;44.868;40.600;2023-04-15T14:37:20;4.60;;;2.20;;
75087;SDS011;63664;44.868;40.600;2023-04-15T14:39:46;11.07;;;3.65;;
75087;SDS011;63664;44.868;40.600;2023-04-15T14:42:12;7.65;;;3.55;;
75087;SDS011;63664;44.868;40.600;2023-04-15T14:44:38;9.15;;;3.45;;
75087;SDS011;63664;44.868;40.600;2023-04-15T14:47:05;10.20;;;2.92;;
75087;SDS011;63664;44.868;40.600;2023-04-15T14:49:31;3.22;;;1.85;;